Time;durP1;ratioP1;P1;durP2;ratioP2;P2;SDS_P1;SDS_P2;PMS_P1;PMS_P2;Temp;Humidity;BMP_temperature;BMP_pressure;BME280_temperature;BME280_humidity;BME280_pressure;Samples;Min_cycle;Max_cycle;Signal;HPM_P1;HPM_P2
2021/11/28 00:01:52;;;;;;;;;;;;;;;3.45;85.28;98073.19;6154817;23;19958;-68
2021/11/28 00:04:18;;;;;;;;;;;;;;;3.49;85.63;98061.56;6154999;23;19920;-65
2021/11/28 00:06:56;;;;;;;;;;;;;;;3.38;85.71;98060.59;6155413;23;19927;-66
2021/11/28 00:12:10;;;;;;;;;;;;;;;3.38;86.02;98071.03;6153930;23;19964;-65
2021/11/28 00:14:37;;;;;;;;;;;;;;;3.55;86.06;98061.97;6154080;23;19925;-67
2021/11/28 00:17:03;;;;;;;;;;;;;;;3.64;85.80;98064.81;6153831;23;19995;-66
2021/11/28 00:19:29;;;;;;;;;;;;;;;3.65;85.30;98062.13;6127494;23;20003;-68
2021/11/28 00:21:54;;;;;;;;;;;;;;;3.70;85.23;98051.28;6154167;23;20269;-66
2021/11/28 00:24:20;;;;;;;;;;;;;;;3.71;85.05;98066.03;6153962;23;19926;-68
2021/11/28 00:26:47;;;;;;;;;;;;;;;3.77;84.97;98062.13;6153778;23;19948;-67
2021/11/28 00:29:13;;;;;;;;;;;;;;;3.89;84.90;98058.59;6153808;23;19921;-68
2021/11/28 00:31:40;;;;;;;;;;;;;;;3.87;84.75;98066.53;6153435;23;19927;-67
2021/11/28 00:34:05;;;;;;;;;;;;;;;3.89;84.50;98064.66;6154043;23;20281;-72
2021/11/28 00:36:31;;;;;;;;;;;;;;;3.86;84.71;98061.44;6127473;23;19948;-67
2021/11/28 00:38:56;;;;;;;;;;;;;;;3.90;84.51;98055.03;6153873;23;19920;-67
2021/11/28 00:41:25;;;;;;;;;;;;;;;3.93;84.49;98059.19;6153845;23;19920;-65
2021/11/28 00:43:51;;;;;;;;;;;;;;;3.97;84.38;98053.59;6153246;23;19927;-66
2021/11/28 00:46:16;;;;;;;;;;;;;;;4.00;84.19;98056.00;6153554;23;19925;-66
2021/11/28 00:48:44;;;;;;;;;;;;;;;4.01;84.16;98052.44;6153871;23;19920;-65
2021/11/28 00:53:48;;;;;;;;;;;;;;;4.07;83.50;98045.88;6153622;23;20394;-67
2021/11/28 00:56:14;;;;;;;;;;;;;;;4.01;84.04;98047.19;6138474;23;20321;-68
2021/11/28 00:58:40;;;;;;;;;;;;;;;4.06;84.16;98059.91;6098240;23;19928;-66
2021/11/28 01:01:05;;;;;;;;;;;;;;;4.05;83.79;98053.03;6098625;23;19924;-67
2021/11/28 01:03:31;;;;;;;;;;;;;;;4.10;83.86;98053.50;6124507;23;19999;-68
2021/11/28 01:05:57;;;;;;;;;;;;;;;4.11;83.72;98054.34;6124214;23;19928;-70
2021/11/28 01:08:23;;;;;;;;;;;;;;;4.13;83.67;98060.28;6125943;23;20417;-67
2021/11/28 01:10:48;;;;;;;;;;;;;;;4.15;83.99;98059.22;6124347;23;20359;-67
2021/11/28 01:13:15;;;;;;;;;;;;;;;4.19;83.70;98051.97;6100047;23;20511;-69
2021/11/28 01:15:43;;;;;;;;;;;;;;;4.21;83.66;98053.50;6125201;23;19921;-71
2021/11/28 01:18:10;;;;;;;;;;;;;;;4.15;83.77;98046.13;6100274;23;19920;-66
2021/11/28 01:20:35;;;;;;;;;;;;;;;4.06;83.54;98049.44;6125304;23;20572;-68
2021/11/28 01:23:01;;;;;;;;;;;;;;;4.14;83.83;98051.50;6100205;23;20261;-65
2021/11/28 01:25:28;;;;;;;;;;;;;;;4.21;83.05;98048.28;6100571;23;19921;-68
2021/11/28 01:27:53;;;;;;;;;;;;;;;4.25;83.49;98048.03;6125942;23;19957;-66
2021/11/28 01:30:19;;;;;;;;;;;;;;;4.20;83.21;98048.41;6100056;23;19921;-66
2021/11/28 01:32:45;;;;;;;;;;;;;;;4.20;83.21;98051.03;6124116;23;19932;-65
2021/11/28 01:35:13;;;;;;;;;;;;;;;4.30;83.33;98051.13;6125842;23;20360;-66
2021/11/28 01:37:40;;;;;;;;;;;;;;;4.33;83.39;98051.72;6100487;23;20348;-66
2021/11/28 01:40:07;;;;;;;;;;;;;;;4.32;83.25;98050.03;6125079;23;19948;-66
2021/11/28 01:42:34;;;;;;;;;;;;;;;4.41;83.23;98050.28;6100261;23;19921;-65
2021/11/28 01:45:01;;;;;;;;;;;;;;;4.41;82.60;98053.75;6125781;23;19921;-67
2021/11/28 01:47:26;;;;;;;;;;;;;;;4.34;83.22;98056.00;6099115;23;19929;-66
2021/11/28 01:49:52;;;;;;;;;;;;;;;4.27;83.27;98057.44;6123744;23;19949;-65
2021/11/28 01:52:19;;;;;;;;;;;;;;;4.29;83.65;98057.31;6099033;23;19928;-66
2021/11/28 01:54:45;;;;;;;;;;;;;;;4.27;83.15;98062.66;6123769;23;20027;-67
2021/11/28 01:57:10;;;;;;;;;;;;;;;4.26;83.30;98061.03;6120950;23;19944;-66
2021/11/28 01:59:37;;;;;;;;;;;;;;;4.31;83.67;98058.03;6124275;23;19925;-67
2021/11/28 02:02:03;;;;;;;;;;;;;;;4.34;83.60;98055.19;6123959;23;19920;-66
2021/11/28 02:04:29;;;;;;;;;;;;;;;4.39;83.16;98060.88;6123896;23;20257;-67
2021/11/28 02:06:55;;;;;;;;;;;;;;;4.40;83.28;98056.47;6123134;23;19927;-65
2021/11/28 02:09:21;;;;;;;;;;;;;;;4.41;83.22;98052.91;6148292;23;20250;-68
2021/11/28 02:11:46;;;;;;;;;;;;;;;4.37;83.18;98058.41;6123661;23;19933;-67
2021/11/28 02:14:13;;;;;;;;;;;;;;;4.36;82.97;98063.72;6123707;23;19948;-66
2021/11/28 02:16:46;;;;;;;;;;;;;;;4.42;83.26;98065.06;6099491;23;20351;-67
2021/11/28 02:19:12;;;;;;;;;;;;;;;4.40;83.28;98046.00;6123245;23;20436;-67
2021/11/28 02:21:37;;;;;;;;;;;;;;;4.34;83.31;98061.25;6125162;23;19925;-69
2021/11/28 02:24:03;;;;;;;;;;;;;;;4.34;82.99;98048.16;6123135;23;19975;-67
2021/11/28 02:26:30;;;;;;;;;;;;;;;4.36;83.55;98046.25;6123635;23;19920;-67
2021/11/28 02:28:56;;;;;;;;;;;;;;;4.34;83.29;98053.38;6122835;23;20436;-66
2021/11/28 02:31:22;;;;;;;;;;;;;;;4.44;83.37;98052.69;6125056;23;19921;-66
2021/11/28 02:33:48;;;;;;;;;;;;;;;4.45;83.23;98055.19;6125127;23;19921;-67
2021/11/28 02:36:13;;;;;;;;;;;;;;;4.43;83.23;98057.06;6123510;23;20356;-67
2021/11/28 02:38:40;;;;;;;;;;;;;;;4.47;83.23;98063.72;6125369;23;20003;-65
2021/11/28 02:41:06;;;;;;;;;;;;;;;4.51;83.04;98054.69;6123480;23;19931;-67
2021/11/28 02:43:36;;;;;;;;;;;;;;;4.58;82.75;98069.94;6123548;23;19921;-67
2021/11/28 02:46:04;;;;;;;;;;;;;;;4.49;82.74;98071.47;6123134;23;19975;-66
2021/11/28 02:48:33;;;;;;;;;;;;;;;4.58;82.45;98065.50;6123299;23;19986;-67
2021/11/28 02:50:59;;;;;;;;;;;;;;;4.60;82.86;98057.53;6124295;23;20296;-66
2021/11/28 02:53:25;;;;;;;;;;;;;;;4.63;82.29;98058.13;6123492;23;19925;-65
2021/11/28 02:55:55;;;;;;;;;;;;;;;4.67;82.39;98063.94;6123233;23;20348;-65
2021/11/28 02:58:21;;;;;;;;;;;;;;;4.66;81.79;98068.38;6123450;23;19932;-67
2021/11/28 03:00:52;;;;;;;;;;;;;;;4.69;82.06;98062.88;6098258;23;19925;-65
2021/11/28 03:03:17;;;;;;;;;;;;;;;4.66;81.62;98067.53;6124679;23;20245;-70
2021/11/28 03:05:44;;;;;;;;;;;;;;;4.62;82.37;98068.72;6123070;23;19921;-65
2021/11/28 03:08:13;;;;;;;;;;;;;;;4.62;82.53;98074.81;6123129;23;19928;-68
2021/11/28 03:10:39;;;;;;;;;;;;;;;4.56;82.44;98077.91;6124807;23;19921;-67
2021/11/28 03:13:26;;;;;;;;;;;;;;;4.58;82.16;98073.38;6098684;23;20003;-66
2021/11/28 03:15:53;;;;;;;;;;;;;;;4.63;82.48;98076.44;6123874;23;19960;-67
2021/11/28 03:18:20;;;;;;;;;;;;;;;4.58;82.30;98096.09;6123681;23;19920;-66
2021/11/28 03:20:47;;;;;;;;;;;;;;;4.65;82.23;98081.59;6123346;23;20348;-68
2021/11/28 03:23:14;;;;;;;;;;;;;;;4.61;81.76;98088.84;6125084;23;19983;-66
2021/11/28 03:25:40;;;;;;;;;;;;;;;4.62;81.96;98085.28;6122518;23;20447;-66
2021/11/28 03:28:10;;;;;;;;;;;;;;;4.65;82.09;98087.66;6122604;23;19935;-66
2021/11/28 03:30:37;;;;;;;;;;;;;;;4.61;81.77;98090.63;6123269;23;19931;-71
2021/11/28 03:33:21;;;;;;;;;;;;;;;4.59;82.46;98093.38;6124951;23;19927;-66
2021/11/28 03:36:19;;;;;;;;;;;;;;;4.61;82.41;98095.84;6063023;23;19950;-65
2021/11/28 03:38:45;;;;;;;;;;;;;;;4.60;82.31;98097.66;6039158;23;19947;-66
2021/11/28 03:41:12;;;;;;;;;;;;;;;4.57;82.83;98100.50;6038792;23;20306;-66
2021/11/28 03:43:38;;;;;;;;;;;;;;;4.62;82.66;98098.38;6038969;23;19945;-66
2021/11/28 03:46:04;;;;;;;;;;;;;;;4.61;82.57;98104.56;6063012;23;19922;-66
2021/11/28 03:48:31;;;;;;;;;;;;;;;4.60;82.17;98102.88;6063601;23;20296;-69
2021/11/28 03:51:03;;;;;;;;;;;;;;;4.68;82.46;98103.09;6039387;23;19921;-68
2021/11/28 03:53:28;;;;;;;;;;;;;;;4.73;82.28;98109.78;6063864;23;20037;-66
2021/11/28 03:55:55;;;;;;;;;;;;;;;4.66;82.21;98110.25;6039626;23;20014;-65
2021/11/28 03:58:21;;;;;;;;;;;;;;;4.66;82.62;98110.25;6015913;23;20540;-67
2021/11/28 04:00:46;;;;;;;;;;;;;;;4.66;82.83;98105.03;6063862;23;19961;-64
2021/11/28 04:03:13;;;;;;;;;;;;;;;4.65;82.55;98105.97;6039277;23;19969;-67
2021/11/28 04:05:40;;;;;;;;;;;;;;;4.63;82.88;98115.72;6015376;23;20349;-68
2021/11/28 04:08:06;;;;;;;;;;;;;;;4.65;82.76;98113.84;6039233;23;19986;-65
2021/11/28 04:10:32;;;;;;;;;;;;;;;4.67;82.90;98126.78;6039309;23;20373;-66
2021/11/28 04:12:58;;;;;;;;;;;;;;;4.67;83.00;98127.66;6089166;23;20276;-69
2021/11/28 04:15:24;;;;;;;;;;;;;;;4.67;83.53;98126.78;6122565;23;20344;-69
2021/11/28 04:18:11;;;;;;;;;;;;;;;4.68;83.60;98129.28;6122696;23;19983;-66
2021/11/28 04:20:37;;;;;;;;;;;;;;;4.67;83.93;98138.13;6123077;23;20033;-66
2021/11/28 04:23:03;;;;;;;;;;;;;;;4.66;83.47;98133.84;6124102;23;19928;-66
2021/11/28 04:25:28;;;;;;;;;;;;;;;4.75;83.23;98134.91;6124787;23;20251;-67
2021/11/28 04:27:54;;;;;;;;;;;;;;;4.68;83.74;98134.53;6123581;23;20003;-65
2021/11/28 04:30:20;;;;;;;;;;;;;;;4.65;83.48;98149.66;6123157;23;19921;-67
2021/11/28 04:32:46;;;;;;;;;;;;;;;4.60;83.52;98146.53;6124335;23;19932;-67
2021/11/28 04:35:13;;;;;;;;;;;;;;;4.58;84.00;98149.28;6122644;23;20006;-67
2021/11/28 04:37:39;;;;;;;;;;;;;;;4.60;84.39;98142.16;6122289;23;19921;-65
2021/11/28 04:40:05;;;;;;;;;;;;;;;4.58;83.99;98154.53;6123222;23;19921;-65
2021/11/28 04:42:35;;;;;;;;;;;;;;;4.57;83.84;98147.63;6124597;23;19920;-67
2021/11/28 04:45:03;;;;;;;;;;;;;;;4.58;84.22;98159.75;6124442;23;19921;-66
2021/11/28 04:47:29;;;;;;;;;;;;;;;4.62;83.63;98155.13;6124447;23;19952;-67
2021/11/28 04:50:08;;;;;;;;;;;;;;;4.62;84.30;98161.22;6124394;23;20403;-66
2021/11/28 04:52:35;;;;;;;;;;;;;;;4.60;84.10;98168.34;6124679;23;19921;-67
2021/11/28 04:55:01;;;;;;;;;;;;;;;4.58;84.03;98165.00;6124076;23;19921;-67
2021/11/28 04:57:28;;;;;;;;;;;;;;;4.61;84.10;98172.63;6124653;23;19920;-67
2021/11/28 04:59:54;;;;;;;;;;;;;;;4.64;83.73;98169.78;6125900;23;20388;-67
2021/11/28 05:02:20;;;;;;;;;;;;;;;4.60;83.79;98173.59;6124994;23;19927;-67
2021/11/28 05:04:46;;;;;;;;;;;;;;;4.65;84.12;98176.69;6125330;23;20003;-67
2021/11/28 05:07:20;;;;;;;;;;;;;;;4.62;83.65;98183.94;6126309;23;19921;-66
2021/11/28 05:09:57;;;;;;;;;;;;;;;4.66;83.30;98182.72;6123918;23;19925;-65
2021/11/28 05:12:23;;;;;;;;;;;;;;;4.66;83.58;98194.06;6123730;23;20326;-66
2021/11/28 05:14:51;;;;;;;;;;;;;;;4.65;83.38;98194.19;6123972;23;19920;-66
2021/11/28 05:17:18;;;;;;;;;;;;;;;4.68;82.82;98197.38;6124073;23;19927;-66
2021/11/28 05:19:53;;;;;;;;;;;;;;;4.75;82.82;98194.28;6125499;23;19921;-68
2021/11/28 05:22:19;;;;;;;;;;;;;;;4.67;83.00;98203.59;6125705;23;19928;-66
2021/11/28 05:24:47;;;;;;;;;;;;;;;4.72;82.69;98211.06;6126034;23;19929;-67
2021/11/28 05:27:13;;;;;;;;;;;;;;;4.70;83.05;98205.97;6123879;23;19928;-66
2021/11/28 05:29:39;;;;;;;;;;;;;;;4.66;82.81;98208.91;6125856;23;19921;-67
2021/11/28 05:32:05;;;;;;;;;;;;;;;4.72;83.29;98202.41;6125740;23;19920;-70
2021/11/28 05:34:39;;;;;;;;;;;;;;;4.67;82.96;98211.44;6125596;23;19921;-69
2021/11/28 05:37:17;;;;;;;;;;;;;;;4.66;83.13;98204.53;6125160;23;20253;-65
2021/11/28 05:39:46;;;;;;;;;;;;;;;4.66;83.14;98207.16;6123981;23;19932;-66
2021/11/28 05:42:12;;;;;;;;;;;;;;;4.70;82.79;98216.44;6125410;23;19991;-65
2021/11/28 05:44:39;;;;;;;;;;;;;;;4.70;82.83;98221.66;6123979;23;19920;-68
2021/11/28 05:47:23;;;;;;;;;;;;;;;4.73;82.88;98225.03;6123934;23;20007;-67
2021/11/28 05:50:09;;;;;;;;;;;;;;;4.70;82.87;98237.38;6112089;23;19921;-69
2021/11/28 05:52:41;;;;;;;;;;;;;;;4.78;82.46;98238.59;6124887;23;19928;-66
2021/11/28 05:55:07;;;;;;;;;;;;;;;4.82;82.02;98245.25;6125665;23;19925;-66
2021/11/28 05:57:33;;;;;;;;;;;;;;;4.83;82.54;98246.94;6129781;23;19921;-70
2021/11/28 05:59:59;;;;;;;;;;;;;;;4.85;82.15;98247.66;6104780;23;19927;-68
2021/11/28 06:02:24;;;;;;;;;;;;;;;4.87;81.87;98250.97;6129070;23;20015;-67
2021/11/28 06:05:04;;;;;;;;;;;;;;;4.92;81.57;98261.97;6128422;23;19921;-67
2021/11/28 06:07:50;;;;;;;;;;;;;;;4.92;81.77;98256.72;6128201;23;20354;-68
2021/11/28 06:10:15;;;;;;;;;;;;;;;4.96;81.68;98258.13;6128649;23;19944;-65
2021/11/28 06:12:41;;;;;;;;;;;;;;;4.98;81.57;98261.44;6128641;23;20272;-69
2021/11/28 06:15:07;;;;;;;;;;;;;;;5.00;81.41;98264.81;6154689;23;19932;-68
2021/11/28 06:18:04;;;;;;;;;;;;;;;4.99;81.45;98270.16;6128208;23;19927;-68
2021/11/28 06:20:56;;;;;;;;;;;;;;;5.02;81.86;98273.38;6129989;23;19971;-67
2021/11/28 06:23:27;;;;;;;;;;;;;;;5.02;81.81;98268.16;6128305;23;20405;-70
2021/11/28 06:25:53;;;;;;;;;;;;;;;5.03;81.53;98274.22;6129160;23;19921;-66
2021/11/28 06:28:18;;;;;;;;;;;;;;;4.99;81.42;98273.59;6154825;23;19955;-67
2021/11/28 06:30:44;;;;;;;;;;;;;;;5.00;81.29;98277.91;6128279;23;19920;-65
2021/11/28 06:33:16;;;;;;;;;;;;;;;4.93;81.41;98271.47;6154646;23;19921;-67
2021/11/28 06:36:02;;;;;;;;;;;;;;;4.90;80.82;98290.03;6119178;23;20256;-69
2021/11/28 06:39:00;;;;;;;;;;;;;;;4.92;80.64;98295.16;6122366;23;19927;-70
2021/11/28 06:41:44;;;;;;;;;;;;;;;4.92;79.80;98293.41;6154374;23;19924;-67
2021/11/28 06:44:10;;;;;;;;;;;;;;;4.94;79.77;98296.72;6154262;23;19970;-70
2021/11/28 06:46:36;;;;;;;;;;;;;;;4.91;78.85;98290.88;6128014;23;20252;-67
2021/11/28 06:49:04;;;;;;;;;;;;;;;4.89;79.03;98301.47;6128044;23;19999;-68
2021/11/28 06:51:38;;;;;;;;;;;;;;;4.88;78.66;98297.19;6154143;23;19920;-67
2021/11/28 06:54:30;;;;;;;;;;;;;;;4.90;78.27;98310.16;6130568;23;19920;-68
2021/11/28 06:57:05;;;;;;;;;;;;;;;4.95;78.17;98305.41;6154646;23;19920;-68
2021/11/28 06:59:31;;;;;;;;;;;;;;;4.88;77.76;98312.06;6129220;23;19920;-69
2021/11/28 07:01:57;;;;;;;;;;;;;;;4.97;77.34;98314.84;6127441;23;19925;-67
2021/11/28 07:04:43;;;;;;;;;;;;;;;4.96;77.14;98321.03;6126633;23;20382;-68
2021/11/28 07:07:11;;;;;;;;;;;;;;;4.92;76.69;98323.97;6127893;23;19947;-72
2021/11/28 07:09:42;;;;;;;;;;;;;;;4.93;76.01;98320.41;6127699;23;19927;-71
2021/11/28 07:12:09;;;;;;;;;;;;;;;4.84;75.90;98322.75;6125973;23;19948;-71
2021/11/28 07:14:35;;;;;;;;;;;;;;;4.90;76.36;98326.72;6101716;23;20317;-68
2021/11/28 07:17:01;;;;;;;;;;;;;;;4.94;75.73;98338.63;6125883;23;20340;-72
2021/11/28 07:19:29;;;;;;;;;;;;;;;4.92;75.63;98340.56;6126340;23;19944;-69
2021/11/28 07:22:18;;;;;;;;;;;;;;;4.94;75.18;98354.34;6140685;23;19924;-73
2021/11/28 07:24:47;;;;;;;;;;;;;;;4.91;74.53;98359.84;6102946;23;20465;-68
2021/11/28 07:27:18;;;;;;;;;;;;;;;4.89;74.97;98361.72;6126232;23;20364;-74
2021/11/28 07:29:43;;;;;;;;;;;;;;;4.94;74.67;98364.00;6127875;23;19916;-72
2021/11/28 07:32:09;;;;;;;;;;;;;;;4.93;74.72;98364.94;6128615;23;19923;-73
2021/11/28 07:34:53;;;;;;;;;;;;;;;4.93;74.40;98367.56;6152851;23;19920;-76
2021/11/28 07:37:42;;;;;;;;;;;;;;;4.89;73.41;98371.38;6106152;23;19920;-73
2021/11/28 07:40:08;;;;;;;;;;;;;;;4.94;73.58;98377.94;6125198;23;19968;-71
2021/11/28 07:42:40;;;;;;;;;;;;;;;4.96;73.57;98383.03;6104046;23;20007;-72
2021/11/28 07:45:38;;;;;;;;;;;;;;;4.95;73.10;98376.97;6136398;23;19920;-70
2021/11/28 07:48:30;;;;;;;;;;;;;;;4.98;72.94;98375.91;6149874;23;19960;-74
2021/11/28 07:51:11;;;;;;;;;;;;;;;4.89;72.45;98380.06;6108192;23;19920;-70
2021/11/28 07:53:38;;;;;;;;;;;;;;;4.88;72.04;98383.63;6128668;23;19931;-73
2021/11/28 07:56:04;;;;;;;;;;;;;;;4.95;71.34;98384.84;6122708;23;19928;-70
2021/11/28 07:58:49;;;;;;;;;;;;;;;5.05;70.98;98397.25;6122844;23;20280;-70
2021/11/28 08:01:23;;;;;;;;;;;;;;;5.08;70.45;98391.78;6123695;23;19928;-70
2021/11/28 08:04:02;;;;;;;;;;;;;;;5.22;70.08;98383.72;6123588;23;19967;-67
2021/11/28 08:06:46;;;;;;;;;;;;;;;5.24;69.32;98388.84;6122907;23;19941;-70
2021/11/28 08:09:44;;;;;;;;;;;;;;;5.36;69.28;98398.41;6105548;23;20015;-70
2021/11/28 08:12:13;;;;;;;;;;;;;;;5.35;68.40;98402.78;6122270;23;20329;-68
2021/11/28 08:14:38;;;;;;;;;;;;;;;5.42;68.34;98405.81;6124547;23;19927;-72
2021/11/28 08:17:04;;;;;;;;;;;;;;;5.39;68.39;98406.03;6125290;23;19921;-69
2021/11/28 08:19:30;;;;;;;;;;;;;;;5.44;68.62;98403.88;6126472;23;19921;-69
2021/11/28 08:21:55;;;;;;;;;;;;;;;5.40;68.60;98388.50;6125942;23;20359;-72
2021/11/28 08:24:22;;;;;;;;;;;;;;;5.43;68.35;98391.75;6125442;23;19972;-72
2021/11/28 08:26:48;;;;;;;;;;;;;;;5.50;68.40;98399.97;6124834;23;19925;-70
2021/11/28 08:29:14;;;;;;;;;;;;;;;5.29;68.29;98402.44;6126575;23;19943;-70
2021/11/28 08:31:42;;;;;;;;;;;;;;;5.38;68.53;98406.13;6125307;23;19999;-72
2021/11/28 08:34:37;;;;;;;;;;;;;;;5.35;68.30;98410.66;6093749;23;19956;-70
2021/11/28 08:37:10;;;;;;;;;;;;;;;5.28;68.64;98404.22;6094329;23;19960;-71
2021/11/28 08:39:37;;;;;;;;;;;;;;;5.29;68.59;98416.38;6094828;23;19933;-70
2021/11/28 08:42:07;;;;;;;;;;;;;;;5.26;69.03;98413.13;6094906;23;19930;-72
2021/11/28 08:44:49;;;;;;;;;;;;;;;5.14;69.52;98412.28;6070114;23;19983;-72
2021/11/28 08:47:16;;;;;;;;;;;;;;;5.12;69.74;98419.41;6069446;23;20017;-71
2021/11/28 08:49:43;;;;;;;;;;;;;;;5.07;69.15;98411.06;6047076;23;19921;-70
2021/11/28 08:52:09;;;;;;;;;;;;;;;5.09;69.57;98419.66;6069574;23;19921;-67
2021/11/28 08:54:38;;;;;;;;;;;;;;;5.05;69.84;98429.53;6094151;23;19921;-72
2021/11/28 08:57:07;;;;;;;;;;;;;;;5.15;69.91;98434.94;6069226;23;19932;-72
2021/11/28 08:59:33;;;;;;;;;;;;;;;5.15;69.77;98432.31;6093526;23;19918;-72
2021/11/28 09:01:58;;;;;;;;;;;;;;;5.17;69.79;98433.88;6094146;23;19941;-71
2021/11/28 09:04:24;;;;;;;;;;;;;;;5.18;69.65;98445.16;6045212;23;19928;-72
2021/11/28 09:06:52;;;;;;;;;;;;;;;5.16;69.69;98447.09;6068641;23;19922;-74
2021/11/28 09:09:18;;;;;;;;;;;;;;;5.14;70.01;98448.97;6045984;23;19937;-67
2021/11/28 09:11:44;;;;;;;;;;;;;;;5.10;70.55;98442.31;6118365;23;19921;-72
2021/11/28 09:14:10;;;;;;;;;;;;;;;5.05;70.14;98444.41;6125304;23;19943;-70
2021/11/28 09:16:36;;;;;;;;;;;;;;;5.03;71.29;98447.16;6124142;23;19943;-72
2021/11/28 09:19:07;;;;;;;;;;;;;;;4.95;71.31;98447.72;6126258;23;20349;-71
2021/11/28 09:21:33;;;;;;;;;;;;;;;4.83;71.41;98448.63;6125257;23;20055;-71
2021/11/28 09:26:43;;;;;;;;;;;;;;;4.80;72.75;98464.56;6124198;23;20003;-73
2021/11/28 09:29:09;;;;;;;;;;;;;;;4.72;72.89;98451.19;6125605;23;20011;-70
2021/11/28 09:31:34;;;;;;;;;;;;;;;4.72;72.90;98461.66;6125659;23;20333;-76
2021/11/28 09:34:02;;;;;;;;;;;;;;;4.70;73.20;98456.56;6125571;23;20309;-73
2021/11/28 09:36:29;;;;;;;;;;;;;;;4.69;74.12;98458.31;6123353;23;19936;-70
2021/11/28 09:39:01;;;;;;;;;;;;;;;4.66;73.79;98455.94;6124737;23;20327;-70
2021/11/28 09:41:30;;;;;;;;;;;;;;;4.73;74.01;98466.78;6098861;23;20008;-68
2021/11/28 09:43:55;;;;;;;;;;;;;;;4.68;73.87;98459.25;6123770;23;19937;-70
2021/11/28 09:46:24;;;;;;;;;;;;;;;4.65;73.70;98466.53;6099888;23;19925;-68
2021/11/28 09:48:57;;;;;;;;;;;;;;;4.65;73.87;98472.59;6125879;23;20363;-70
2021/11/28 09:51:32;;;;;;;;;;;;;;;4.66;73.98;98476.88;6125458;23;19948;-72
2021/11/28 09:53:59;;;;;;;;;;;;;;;4.61;74.27;98470.28;6100597;23;20315;-71
2021/11/28 09:56:25;;;;;;;;;;;;;;;4.68;73.90;98474.97;6099940;23;19920;-69
2021/11/28 09:58:51;;;;;;;;;;;;;;;4.61;73.54;98472.91;6100096;23;20452;-70
2021/11/28 10:01:17;;;;;;;;;;;;;;;4.62;74.19;98483.31;6124067;23;19960;-73
2021/11/28 10:03:45;;;;;;;;;;;;;;;4.58;74.20;98487.06;6126081;23;19960;-71
2021/11/28 10:06:13;;;;;;;;;;;;;;;4.57;73.74;98482.78;6123328;23;19921;-73
2021/11/28 10:08:41;;;;;;;;;;;;;;;4.64;73.99;98494.47;6124193;23;19995;-73
2021/11/28 10:11:16;;;;;;;;;;;;;;;4.50;73.57;98499.88;6100844;23;20245;-71
2021/11/28 10:13:52;;;;;;;;;;;;;;;4.59;73.84;98503.63;6125083;23;20359;-72
2021/11/28 10:16:22;;;;;;;;;;;;;;;4.47;73.80;98508.75;6101098;23;20332;-70
2021/11/28 10:18:48;;;;;;;;;;;;;;;4.47;74.09;98514.00;6125025;23;19920;-72
2021/11/28 10:21:16;;;;;;;;;;;;;;;4.61;73.79;98520.03;6126083;23;20004;-71
2021/11/28 10:24:01;;;;;;;;;;;;;;;4.52;72.99;98524.16;6125091;23;19921;-71
2021/11/28 10:26:28;;;;;;;;;;;;;;;4.58;72.71;98515.03;6124196;23;19963;-69
2021/11/28 10:29:11;;;;;;;;;;;;;;;4.50;72.84;98531.31;6126147;23;19921;-71
2021/11/28 10:31:43;;;;;;;;;;;;;;;4.56;72.70;98530.00;6149544;23;19925;-70
2021/11/28 10:34:15;;;;;;;;;;;;;;;4.51;71.92;98541.66;6101820;23;20328;-72
2021/11/28 10:36:40;;;;;;;;;;;;;;;4.52;71.73;98553.81;6126277;23;19921;-70
2021/11/28 10:39:13;;;;;;;;;;;;;;;4.54;70.98;98545.84;6100696;23;20002;-73
2021/11/28 10:41:47;;;;;;;;;;;;;;;4.56;71.57;98551.81;6100677;23;19925;-72
2021/11/28 10:44:13;;;;;;;;;;;;;;;4.61;70.74;98549.72;6123751;23;20260;-69
2021/11/28 10:46:38;;;;;;;;;;;;;;;4.66;70.20;98560.69;6125839;23;19921;-72
2021/11/28 10:49:06;;;;;;;;;;;;;;;4.63;70.26;98557.44;6125952;23;19937;-71
2021/11/28 10:51:32;;;;;;;;;;;;;;;4.66;69.29;98557.22;6126270;23;19920;-71
2021/11/28 10:53:58;;;;;;;;;;;;;;;4.67;69.58;98562.38;6126159;23;19929;-71
2021/11/28 10:56:24;;;;;;;;;;;;;;;4.61;69.12;98565.41;6139333;23;20386;-70
2021/11/28 10:58:49;;;;;;;;;;;;;;;4.61;68.53;98568.03;6155413;23;20341;-74
2021/11/28 11:01:15;;;;;;;;;;;;;;;4.59;69.05;98575.16;6129729;23;19920;-73
2021/11/28 11:03:48;;;;;;;;;;;;;;;4.74;68.34;98575.03;6129013;23;19999;-72
2021/11/28 11:06:18;;;;;;;;;;;;;;;4.77;68.88;98580.03;6155432;23;19921;-72
2021/11/28 11:08:44;;;;;;;;;;;;;;;4.69;68.43;98581.41;6156556;23;19920;-72
2021/11/28 11:11:13;;;;;;;;;;;;;;;4.67;68.74;98574.59;6155982;23;20012;-71
2021/11/28 11:14:11;;;;;;;;;;;;;;;4.75;68.43;98584.53;6154382;23;19928;-73
2021/11/28 11:16:39;;;;;;;;;;;;;;;4.78;68.68;98584.34;6064193;23;20376;-71
2021/11/28 11:19:23;;;;;;;;;;;;;;;4.78;68.65;98573.84;6064841;23;19937;-75
2021/11/28 11:21:59;;;;;;;;;;;;;;;4.73;68.42;98591.69;6065512;23;19928;-70
2021/11/28 11:24:25;;;;;;;;;;;;;;;4.77;68.61;98582.66;6065329;23;19922;-71
2021/11/28 11:26:50;;;;;;;;;;;;;;;4.74;68.01;98577.66;6065724;23;19991;-76
2021/11/28 11:29:17;;;;;;;;;;;;;;;4.70;68.60;98571.78;6065067;23;20401;-71
2021/11/28 11:31:52;;;;;;;;;;;;;;;4.70;68.43;98583.09;6065418;23;19922;-76
2021/11/28 11:34:25;;;;;;;;;;;;;;;4.78;68.44;98579.91;6064480;23;19941;-73
2021/11/28 11:36:53;;;;;;;;;;;;;;;4.76;68.35;98588.84;6064565;23;20739;-72
2021/11/28 11:39:18;;;;;;;;;;;;;;;4.74;68.70;98598.59;6065253;23;20451;-71
2021/11/28 11:41:44;;;;;;;;;;;;;;;4.70;68.76;98590.94;6064097;23;19948;-70
2021/11/28 11:44:11;;;;;;;;;;;;;;;4.67;68.79;98591.19;6063801;23;20094;-74
2021/11/28 11:46:36;;;;;;;;;;;;;;;4.64;68.50;98604.47;6040606;23;20396;-73
2021/11/28 11:49:03;;;;;;;;;;;;;;;4.72;68.81;98603.94;6041836;23;19952;-67
2021/11/28 11:51:30;;;;;;;;;;;;;;;4.72;68.68;98608.34;6083500;23;19927;-76
2021/11/28 11:53:56;;;;;;;;;;;;;;;4.62;68.70;98613.38;6130944;23;19944;-73
2021/11/28 11:56:22;;;;;;;;;;;;;;;4.56;68.73;98619.03;6154094;23;20355;-71
2021/11/28 11:58:54;;;;;;;;;;;;;;;4.58;69.11;98625.03;6129464;23;20007;-71
2021/11/28 12:01:27;;;;;;;;;;;;;;;4.60;69.64;98637.06;6128338;23;19920;-72
2021/11/28 12:03:54;;;;;;;;;;;;;;;4.60;69.42;98637.06;6130487;23;20003;-71
2021/11/28 12:06:58;;;;;;;;;;;;;;;4.60;69.25;98633.59;6154884;23;19920;-72
2021/11/28 12:09:27;;;;;;;;;;;;;;;4.57;69.76;98639.88;6063814;23;20389;-71
2021/11/28 12:11:54;;;;;;;;;;;;;;;4.56;69.28;98646.09;6063516;23;20456;-72
2021/11/28 12:14:20;;;;;;;;;;;;;;;4.63;69.45;98643.88;6064357;23;19922;-71
2021/11/28 12:16:45;;;;;;;;;;;;;;;4.65;69.50;98636.75;6064049;23;19926;-70
2021/11/28 12:19:11;;;;;;;;;;;;;;;4.56;69.55;98632.13;6040614;23;19921;-70
2021/11/28 12:21:38;;;;;;;;;;;;;;;4.56;69.66;98635.59;6042443;23;19926;-71
2021/11/28 12:24:11;;;;;;;;;;;;;;;4.64;69.80;98638.50;6065059;23;19921;-71
2021/11/28 12:26:38;;;;;;;;;;;;;;;4.67;69.90;98635.69;6065182;23;19921;-72
2021/11/28 12:29:10;;;;;;;;;;;;;;;4.67;70.00;98640.94;6067048;23;19927;-70
2021/11/28 12:31:43;;;;;;;;;;;;;;;4.66;70.31;98641.03;6066552;23;19922;-71
2021/11/28 12:34:10;;;;;;;;;;;;;;;4.68;70.92;98647.81;6064536;23;19922;-73
2021/11/28 12:36:48;;;;;;;;;;;;;;;4.72;71.18;98643.22;6014625;23;19927;-76
2021/11/28 12:39:19;;;;;;;;;;;;;;;4.83;70.41;98645.09;6075529;23;19921;-70
2021/11/28 12:41:51;;;;;;;;;;;;;;;4.62;71.01;98643.03;6155246;23;19921;-73
2021/11/28 12:44:18;;;;;;;;;;;;;;;4.54;71.58;98656.63;6155942;23;20102;-73
2021/11/28 12:46:48;;;;;;;;;;;;;;;4.50;71.71;98660.41;6128174;23;19955;-71
2021/11/28 12:49:26;;;;;;;;;;;;;;;4.60;72.08;98660.63;6128851;23;19990;-72
2021/11/28 12:51:52;;;;;;;;;;;;;;;4.63;71.62;98664.81;6154802;23;20233;-71
2021/11/28 12:54:25;;;;;;;;;;;;;;;4.66;71.15;98667.22;6128732;23;19924;-73
2021/11/28 12:57:15;;;;;;;;;;;;;;;4.60;71.21;98676.34;6076200;23;19925;-72
2021/11/28 12:59:41;;;;;;;;;;;;;;;4.61;71.36;98678.03;6122575;23;20036;-69
2021/11/28 13:02:07;;;;;;;;;;;;;;;4.45;71.39;98674.75;6126738;23;20356;-70
2021/11/28 13:04:38;;;;;;;;;;;;;;;4.53;71.10;98680.31;6126522;23;19921;-72
2021/11/28 13:07:23;;;;;;;;;;;;;;;4.58;71.16;98687.88;6126382;23;19921;-71
2021/11/28 13:09:49;;;;;;;;;;;;;;;4.52;70.86;98689.97;6099385;23;20257;-70
2021/11/28 13:12:15;;;;;;;;;;;;;;;4.37;70.58;98689.22;6125849;23;19921;-70
2021/11/28 13:14:44;;;;;;;;;;;;;;;4.37;70.75;98702.31;6124402;23;20436;-73
2021/11/28 13:17:10;;;;;;;;;;;;;;;4.36;70.27;98705.00;6099937;23;19928;-76
2021/11/28 13:19:36;;;;;;;;;;;;;;;4.39;70.42;98710.06;6124517;23;19920;-71